Tiempo atmosférico en la estación meteorológica de Montehermoso, Cáceres (351 m.)



Fecha
DESCASC
Temp. máxima en grados centígrados (hora)
DESCASC
Temp. mínima en grados centígrados (hora)
DESCASC
Temp. media en grados centígrados
DESCASC
Racha de viento máxima en m/sg (hora)
DESCASC
Velocidad máxima media en intervalos de 10 minutos(hora)
DESCASC
Precipitaciones diarias en mm
DESCASC
Precipitaciones de 00:00 a 06:00 en mm
DESCASC
Precipitaciones de 06:00 a 12:00 en mm
DESCASC
Precipitaciones de 12:00 a 18:00 en mm
DESCASC
Precipitaciones de 18:00 a 24:00 en mm
DESCASC
16-01-2020 14.8 (15:30) 9 (00:00) 11.9 8.33 (16:00) 5 (13:30) 0.4 0 0 0 0.4
15-01-2020 9.5 (16:20) 7.2 (04:00) 8.3 7.5 (05:50) 4.44 (06:00) 10.4 0 5.2 4.6 0.6
14-01-2020 10.1 (15:30) -0.1 (01:20) 5 4.72 (19:00) 2.78 (20:20) 0.4 0 0 0 0.4
13-01-2020 11.5 (15:50) -1 (07:30) 5.3 4.44 (15:20) 2.5 (15:20) 0 0 0 0 0
12-01-2020 12.7 (16:30) -2.8 (-00:0) 4.9 2.78 (14:50) 1.39 (02:00) 0 0 0 0 0
11-01-2020 12.9 (17:00) 0.1 (00:00) 6.5 5.56 (01:00) 2.5 (00:30) 0 0 0 0 0
10-01-2020 13.5 (16:10) 5.1 (00:00) 9.3 10.56 (09:40) 7.5 (01:40) 0 0 0 0 0
09-01-2020 14.3 (16:00) 1 (00:00) 7.7 7.78 (23:50) 5.28 (23:50) 0 0 0 0 0
08-01-2020 13.2 (16:40) -1.3 (-00:0) 5.9 3.06 (15:20) 1.94 (15:20) 0 0 0 0 0
07-01-2020 15 (16:30) -0.3 (00:00) 7.3 3.06 (13:20) 1.67 (13:10) 0 0 0 0 0
06-01-2020 13.4 (16:20) -1.1 (-00:0) 6.1 2.78 (13:20) 1.67 (11:30) 0 0 0 0 0
05-01-2020 14 (15:50) 0 (00:00) 7 5 (01:50) 2.5 (01:50) 0 0 0 0 0
04-01-2020 12.8 (14:40) 0.4 (00:00) 6.6 7.78 (10:40) 3.61 (10:40) 0 0 0 0 0
03-01-2020 15 (16:20) 3.3 (00:00) 9.1 5.83 (16:20) 3.33 (15:00) 0 0 0 0 0
02-01-2020 10.4 (15:30) -1.2 (-00:0) 4.6 3.06 (15:40) 1.94 (15:40) 0 0 0 0 0
01-01-2020 13.6 (16:10) -0.2 (00:00) 6.7 3.33 (12:10) 1.94 (12:10) 0 0 0 0 0
31-12-2019 13.4 (16:40) -0.4 (00:00) 6.5 2.78 (12:10) 1.67 (00:50) 0 0 0 0 0
30-12-2019 15 (17:00) -0.3 (00:00) 7.3 3.33 (13:40) 1.67 (13:40) 0 0 0 0 0
29-12-2019 16.8 (15:40) 1.1 (00:00) 8.9 4.44 (13:20) 2.5 (13:30) 0 0 0 0 0
28-12-2019 18.6 (16:40) 2.5 (00:00) 10.6 5.28 (13:20) 3.06 (13:20) 0 0 0 0 0
27-12-2019 16.8 (16:20) 4.9 (00:00) 10.8 3.89 (00:30) 2.5 (00:30) 0 0 0 0 0
26-12-2019 16.7 (15:20) 4.4 (00:00) 10.6 5.83 (15:10) 3.33 (14:40) 0 0 0 0 0
25-12-2019 17 (14:50) 7.5 (00:00) 12.3 5.56 (02:10) 2.78 (07:20) 0 0 0 0 0
24-12-2019 15.5 (15:50) 4 (00:00) 9.8 4.72 (22:30) 3.06 (22:30) 0 0 0 0 0
23-12-2019 13.5 (15:50) 3 (00:00) 8.3 3.89 (14:10) 2.22 (15:00) 0 0 0 0 0
22-12-2019 16.6 (15:50) 6.8 (00:00) 11.7 10.83 (19:00) 6.11 (19:00) 0.6 0 0 0.6 0
21-12-2019 17.7 (14:40) 12.3 (00:00) 15 17.22 (15:40) 9.44 (15:30) 4.6 0.6 2.2 1.8 0
20-12-2019 15.2 (19:30) 12 (00:00) 13.6 13.89 (01:20) 6.94 (04:30) 37.6 6.4 0 23.6 7.6
19-12-2019 14.7 (23:30) 10.1 (00:00) 12.4 16.39 (20:30) 9.17 (19:10) 48.6 0.4 2 24.6 21.6

Gráficas

Temp. máximas Temp. mínimas Temp. medias Precipitaciones Rachas de viento máximas Velocidades máximas media en intervalos de 10 minutos

Datos horarios

Fecha y hora oficial Temperatura (ºC) Velocidad del viento (km/h) Dirección del viento Racha (km/h) Dirección de racha Precipitación (mm) Presión (hPa) Tendencia (hPa) Humedad (%)
2020-01-17 23:00:00 -- -- -- -- -- -- -- -- --
2020-01-17 22:00:00 -- -- -- -- -- -- -- -- --
2020-01-17 21:00:00 9 3 Noroeste 7 Oeste 0 -- -- 85
2020-01-17 20:00:00 9.4 4 Noroeste 9 Oeste 0 -- -- 83
2020-01-17 19:00:00 10.5 7 Oeste 11 Oeste 0 -- -- 76
2020-01-17 18:00:00 12.2 4 Sudoeste 8 Sudoeste 0 -- -- 72
2020-01-17 17:00:00 14.5 4 Sur 15 Oeste 0 -- -- 62
2020-01-17 16:00:00 14.2 6 Oeste 17 Oeste 0 -- -- 63
2020-01-17 15:00:00 13.6 6 Oeste 14 Noroeste 0 -- -- 68
2020-01-17 14:00:00 13.2 6 Oeste 12 Oeste 0 -- -- 77
2020-01-17 13:00:00 11.6 5 Oeste 14 Oeste 0 -- -- 86
2020-01-17 12:00:00 10.8 6 Oeste 11 Oeste 0 -- -- 92
2020-01-17 11:00:00 9.8 6 Sudoeste 10 Oeste 0 -- -- 98
2020-01-17 10:00:00 9.1 0 Calma 3 Sur 0 -- -- 98
2020-01-17 09:00:00 8.7 2 Sudeste 5 Sur 0 -- -- 98
2020-01-17 08:00:00 8.9 2 Sur 5 Sudeste 0 -- -- 97
2020-01-17 07:00:00 9.1 2 Sur 5 Sur 0 -- -- 97
2020-01-17 06:00:00 9.3 3 Sudeste 7 Sur 0 -- -- 96
2020-01-17 05:00:00 9.5 0 Calma 11 Noroeste 0 -- -- 95
2020-01-17 04:00:00 9.3 4 Oeste 8 Oeste 0 -- -- 95
2020-01-17 03:00:00 9.6 3 Sur 9 Oeste 0 -- -- 94
2020-01-17 02:00:00 10 3 Oeste 9 Oeste 0 -- -- 93
2020-01-17 01:00:00 10.2 4 Sudoeste 15 Sudoeste 0 -- -- 92
2020-01-17 00:00:00 10.5 6 Sudoeste 13 Sur 0 -- -- 91
2020-01-16 23:00:00 10.9 6 Sur 12 Sur 0 -- -- 86
2020-01-16 22:00:00 10.9 3 Sudoeste 29 Sur 0.4 -- -- 84
2020-01-16 21:00:00 12.3 14 Sur 28 Sur 0 -- -- 72
2020-01-16 20:00:00 12.2 4 Sudeste 17 Sur 0 -- -- 70
2020-01-16 19:00:00 13.1 10 Sur 23 Sur 0 -- -- 66
2020-01-16 18:00:00 13.2 13 Sur 21 Sur 0 -- -- 66
2020-01-16 17:00:00 13.4 12 Sur 30 Sur 0 -- -- 68
2020-01-16 16:00:00 14.3 15 Sur 30 Sur 0 -- -- 66
2020-01-16 15:00:00 13.5 13 Sur 23 Sur 0 -- -- 70
2020-01-16 14:00:00 13.6 15 Sur 28 Sur 0 -- -- 76
2020-01-16 13:00:00 12.4 13 Sur 23 Sur 0 -- -- 82
2020-01-16 12:00:00 11.1 12 Sudeste 19 Sudeste 0 -- -- 90
2020-01-16 11:00:00 10.1 6 Sudeste 13 Sudeste 0 -- -- 95
2020-01-16 10:00:00 9.7 5 Sudeste 16 Sudeste 0 -- -- 96
2020-01-16 09:00:00 9.3 8 Sudeste 14 Sur 0 -- -- 96
2020-01-16 08:00:00 9.4 8 Sur 16 Sur 0 -- -- 96
2020-01-16 07:00:00 9.2 5 Sur 13 Sur 0 -- -- 97
2020-01-16 06:00:00 9.2 7 Sudeste 15 Sudeste 0 -- -- 97
2020-01-16 05:00:00 9.1 2 Sudeste 8 Sudeste 0 -- -- 97
2020-01-16 04:00:00 9 3 Sudeste 16 Sur 0 -- -- 97
2020-01-16 03:00:00 9 8 Sur 12 Sur 0 -- -- 97
2020-01-16 02:00:00 9.2 5 Sudeste 8 Sudeste 0 -- -- 96
2020-01-16 01:00:00 9.2 5 Sudeste 14 Sudeste 0 -- -- 96
2020-01-16 00:00:00 9 6 Sudeste 14 Sudeste 0 -- -- 97
2020-01-15 23:00:00 8.9 6 Sudeste 13 Sudeste 0 -- -- 96
2020-01-15 22:00:00 8.9 4 Sur 13 Sudeste 0 -- -- 96
2020-01-15 21:00:00 8.7 10 Sudeste 18 Sudeste 0 -- -- 96
2020-01-15 20:00:00 8.8 4 Sudeste 12 Sudeste 0.2 -- -- 97
2020-01-15 19:00:00 8.9 0 Calma 15 Sudeste 0.4 -- -- 96
2020-01-15 18:00:00 9.2 8 Sudeste 20 Sudeste 0 -- -- 95
2020-01-15 17:00:00 9.5 5 Sudeste 18 Este 0 -- -- 96
2020-01-15 16:00:00 9.3 7 Sudeste 21 Sudeste 0 -- -- 97
2020-01-15 15:00:00 8.9 7 Sudeste 13 Sudeste 0.2 -- -- 98
2020-01-15 14:00:00 8.5 5 Sudeste 19 Sudeste 1.4 -- -- 98
2020-01-15 13:00:00 8.3 14 Sudeste 23 Sur 3 -- -- 96
2020-01-15 12:00:00 8.6 5 Sudeste 20 Este 3 -- -- 93
2020-01-15 11:00:00 8.2 4 Este 17 Sudeste 1.6 -- -- 93
2020-01-15 10:00:00 8.2 4 Sudeste 19 Sur 0.2 -- -- 92
2020-01-15 09:00:00 7.9 10 Sudeste 18 Sudeste 0.2 -- -- 91
2020-01-15 08:00:00 7.9 9 Sudeste 21 Sur 0.2 -- -- 90
2020-01-15 07:00:00 8.2 8 Sur 22 Sur 0 -- -- 87
2020-01-15 06:00:00 8.3 16 Sur 27 Sur 0 -- -- 85
2020-01-15 05:00:00 8.1 14 Sur 22 Sur 0 -- -- 87
2020-01-15 04:00:00 7.2 5 Sudeste 12 Sudeste 0 -- -- 91
2020-01-15 03:00:00 8.1 7 Sudeste 12 Sur 0 -- -- 90
2020-01-15 02:00:00 8.3 4 Sudeste 8 Sudeste 0 -- -- 91
2020-01-15 01:00:00 8.6 5 Sudeste 13 Sudeste 0 -- -- 89
2020-01-15 00:00:00 8.4 6 Sudeste 14 Sur 0 -- -- 89
2020-01-14 23:00:00 8.1 5 Sudeste 14 Sudeste 0 -- -- 90
2020-01-14 22:00:00 7.9 6 Sur 15 Sur 0.2 -- -- 92
2020-01-14 21:00:00 7.5 4 Sudeste 17 Sudeste 0 -- -- 94
2020-01-14 20:00:00 7.3 4 Sudeste 15 Sur 0.2 -- -- 94
2020-01-14 19:00:00 8.1 7 Sudeste 17 Sudeste 0 -- -- 84
2020-01-14 18:00:00 8.8 4 Sudeste 13 Sudeste 0 -- -- 80
2020-01-14 17:00:00 9.3 6 Sudeste 13 Sudeste 0 -- -- 76
2020-01-14 16:00:00 9.7 7 Sudeste 14 Sudeste 0 -- -- 73
2020-01-14 15:00:00 9.7 5 Sudeste 13 Sudeste 0 -- -- 74
2020-01-14 14:00:00 7.4 5 Sudeste 9 Sudeste 0 -- -- 79
2020-01-14 13:00:00 6.3 3 Sudeste 12 Sudeste 0 -- -- 83
2020-01-14 12:00:00 6.2 6 Sudeste 10 Sudeste 0 -- -- 82
2020-01-14 11:00:00 5.6 0 Calma 4 Nordeste 0 -- -- 86
2020-01-14 10:00:00 4.4 2 Noroeste 6 Oeste 0 -- -- 91
2020-01-14 09:00:00 3.8 0 Calma 6 Sudeste 0 -- -- 90
2020-01-14 08:00:00 4.4 3 Sudeste 10 Nordeste 0 -- -- 88
2020-01-14 07:00:00 4.6 7 Nordeste 14 Norte 0 -- -- 87
2020-01-14 06:00:00 4.2 6 Nordeste 10 Nordeste 0 -- -- 88
2020-01-14 05:00:00 3.8 4 Nordeste 9 Nordeste 0 -- -- 92
2020-01-14 04:00:00 2.1 3 Norte 8 Nordeste 0 -- -- 97
2020-01-14 03:00:00 0.3 2 Noroeste 5 Oeste 0 -- -- 96
2020-01-14 02:00:00 0.1 2 Noroeste 5 Nordeste 0 -- -- 95
2020-01-14 01:00:00 0.3 2 Noroeste -- -- 0 -- -- 95
2020-01-14 00:00:00 0.5 3 Noroeste 5 Oeste 0 -- -- 93
2020-01-13 23:00:00 1.5 3 Noroeste 5 Oeste 0 -- -- 91
2020-01-13 22:00:00 2.1 4 Noroeste 5 Noroeste 0 -- -- 91
2020-01-13 21:00:00 3.1 0 Calma 8 Sudeste 0 -- -- 87
2020-01-13 20:00:00 4.1 5 Oeste 6 Oeste 0 -- -- 86
2020-01-13 19:00:00 5.7 3 Noroeste -- -- 0 -- -- 82
2020-01-13 18:00:00 10 5 Sur 12 Sur 0 -- -- 65
2020-01-13 17:00:00 11 6 Sur 13 Sur 0 -- -- 58
2020-01-13 16:00:00 11.5 9 Sudeste 16 Sudeste 0 -- -- 58
2020-01-13 15:00:00 10.7 5 Sudoeste 14 Sudeste 0 -- -- 63
2020-01-13 14:00:00 9.9 5 Sudeste 10 Sur 0 -- -- 67
2020-01-13 13:00:00 8.3 5 Sur 8 Sudeste 0 -- -- 70
2020-01-13 12:00:00 6.2 3 Este 6 Nordeste 0 -- -- 79
2020-01-13 11:00:00 2.9 0 Calma 4 Este 0 -- -- 93
2020-01-13 10:00:00 0.7 0 Calma 4 Noroeste 0 -- -- 97
2020-01-13 09:00:00 -0.6 2 Noroeste 4 Oeste 0 -- -- 96
2020-01-13 08:00:00 -0.7 2 Noroeste 3 Noroeste 0 -- -- 96
2020-01-13 07:00:00 -0.7 0 Calma 4 Oeste 0 -- -- 96
2020-01-13 06:00:00 -0.2 3 Noroeste 5 Oeste 0 -- -- 95
2020-01-13 05:00:00 0.1 4 Noroeste -- -- 0 -- -- 96
2020-01-13 04:00:00 0 3 Oeste 4 Oeste 0 -- -- 95
2020-01-13 03:00:00 0.8 0 Calma 5 Norte 0 -- -- 94
2020-01-13 02:00:00 1.5 2 Norte 4 Nordeste 0 -- -- 94
2020-01-13 01:00:00 2.7 2 Norte 7 Norte 0 -- -- 94
2020-01-13 00:00:00 2.2 3 Norte 5 Norte 0 -- -- 94
2020-01-12 23:00:00 2.2 3 Noroeste 5 Oeste 0 -- -- 92
2020-01-12 22:00:00 2.9 3 Noroeste 6 Noroeste 0 -- -- 89
2020-01-12 21:00:00 3.8 4 Noroeste 5 Oeste 0 -- -- 87
2020-01-12 20:00:00 4.8 4 Noroeste 6 Oeste 0 -- -- 85
2020-01-12 19:00:00 6.4 2 Norte 5 Sur 0 -- -- 80
2020-01-12 18:00:00 10.9 3 Sur 9 Sudoeste 0 -- -- 63
2020-01-12 17:00:00 12.6 5 Sudoeste 9 Sur 0 -- -- 57
2020-01-12 16:00:00 12.4 4 Sudoeste 9 Oeste 0 -- -- 56
2020-01-12 15:00:00 11.3 4 Sudoeste 10 Sur 0 -- -- 59
2020-01-12 14:00:00 9.9 2 Sudeste 8 Sudeste 0 -- -- 66
2020-01-12 13:00:00 7.9 3 Sur 8 Sur 0 -- -- 68
2020-01-12 12:00:00 5.8 4 Sudeste 8 Sudeste 0 -- -- 76
2020-01-12 11:00:00 4.2 2 Sur 4 Sur 0 -- -- 82
2020-01-12 10:00:00 -0.1 0 Calma 3 Noroeste 0 -- -- 97
2020-01-12 09:00:00 -2.8 2 Norte 3 Oeste 0 -- -- 95
2020-01-12 08:00:00 -1.9 3 Oeste 4 Oeste 0 -- -- 95
2020-01-12 07:00:00 -1.6 2 Noroeste 6 Noroeste 0 -- -- 94
2020-01-12 06:00:00 -1.2 3 Noroeste 5 Noroeste 0 -- -- 95
2020-01-12 05:00:00 -0.8 2 Oeste 5 Noroeste 0 -- -- 95
2020-01-12 04:00:00 -0.9 3 Noroeste 5 Oeste 0 -- -- 94
2020-01-12 03:00:00 -0.2 3 Noroeste 6 Oeste 0 -- -- 92
2020-01-12 02:00:00 1 5 Oeste 8 Oeste 0 -- -- 93
2020-01-12 01:00:00 0.9 4 Oeste 7 Noroeste 0 -- -- 92
2020-01-12 00:00:00 1.2 4 Noroeste 7 Oeste 0 -- -- 92
2020-01-11 23:00:00 0.9 2 Noroeste 5 Oeste 0 -- -- 90
2020-01-11 22:00:00 2.7 4 Oeste 6 Oeste 0 -- -- 86
2020-01-11 21:00:00 3.2 4 Oeste 7 Oeste 0 -- -- 84
2020-01-11 20:00:00 4.1 4 Noroeste 6 Noroeste 0 -- -- 83
2020-01-11 19:00:00 5.9 2 Noroeste 4 Norte 0 -- -- 78
2020-01-11 18:00:00 11.7 0 Calma 3 Sur 0 -- -- 58
2020-01-11 17:00:00 12.9 2 Sur 8 Sur 0 -- -- 51
2020-01-11 16:00:00 12.6 3 Sudeste 18 Sudeste 0 -- -- 51
2020-01-11 15:00:00 11.8 7 Sur 11 Sudeste 0 -- -- 54
2020-01-11 14:00:00 10.9 7 Sur 14 Sur 0 -- -- 57
2020-01-11 13:00:00 9.9 8 Sur 13 Sudeste 0 -- -- 59
2020-01-11 12:00:00 8.2 4 Sur 10 Sudeste 0 -- -- 71
2020-01-11 11:00:00 6.5 3 Sudeste 12 Nordeste 0 -- -- 75
2020-01-11 10:00:00 4.7 4 Nordeste 9 Nordeste 0 -- -- 80
2020-01-11 09:00:00 3.5 3 Nordeste 15 Norte 0 -- -- 81
2020-01-11 08:00:00 3.3 6 Norte 15 Norte 0 -- -- 83
2020-01-11 07:00:00 0.1 3 Norte 6 Norte 0 -- -- 92
2020-01-11 06:00:00 1.5 0 Calma 6 Sudeste 0 -- -- 86
2020-01-11 05:00:00 3.3 2 Sudeste 11 Norte 0 -- -- 82
2020-01-11 04:00:00 1.9 4 Norte 8 Norte 0 -- -- 87
2020-01-11 03:00:00 4.8 5 Sudeste 8 Norte 0 -- -- 75
2020-01-11 02:00:00 4.3 2 Noroeste 18 Norte 0 -- -- 77
2020-01-11 01:00:00 7.2 9 Norte 20 Norte 0 -- -- 66
2020-01-11 00:00:00 7.3 9 Norte 18 Norte 0 -- -- 65
2020-01-10 23:00:00 7.6 9 Norte 21 Nordeste 0 -- -- 65
2020-01-10 22:00:00 7.9 10 Norte 24 Norte 0 -- -- 65
2020-01-10 21:00:00 8.3 12 Norte 26 Norte 0 -- -- 63
2020-01-10 20:00:00 8.7 10 Norte 25 Nordeste 0 -- -- 62
2020-01-10 19:00:00 9.5 13 Norte 33 Norte 0 -- -- 58
2020-01-10 18:00:00 11.1 13 Nordeste 30 Norte 0 -- -- 52
2020-01-10 17:00:00 12.7 13 Nordeste 29 Norte 0 -- -- 47
2020-01-10 16:00:00 13.4 10 Nordeste 26 Norte 0 -- -- 47
2020-01-10 15:00:00 13.2 12 Nordeste 30 Nordeste 0 -- -- 46
2020-01-10 14:00:00 11.5 14 Nordeste 33 Nordeste 0 -- -- 53
2020-01-10 13:00:00 11.8 15 Nordeste 37 Nordeste 0 -- -- 51
2020-01-10 12:00:00 10.4 15 Nordeste 37 Nordeste 0 -- -- 56
2020-01-10 11:00:00 8.9 12 Nordeste 35 Nordeste 0 -- -- 61
2020-01-10 10:00:00 7.7 12 Nordeste 38 Nordeste 0 -- -- 65
2020-01-10 09:00:00 6.4 7 Norte 22 Norte 0 -- -- 68
2020-01-10 08:00:00 5.5 7 Norte 19 Noroeste 0 -- -- 72
2020-01-10 07:00:00 5.4 10 Noroeste 21 Noroeste 0 -- -- 72
2020-01-10 06:00:00 6.1 12 Norte 22 Norte 0 -- -- 69
2020-01-10 05:00:00 5.5 8 Norte 16 Norte 0 -- -- 71
2020-01-10 04:00:00 5.7 5 Norte 12 Norte 0 -- -- 72
2020-01-10 03:00:00 6 5 Norte 14 Norte 0 -- -- 76
2020-01-10 02:00:00 8.4 12 Norte 36 Norte 0 -- -- 70
2020-01-10 01:00:00 9.6 18 Norte 31 Noroeste 0 -- -- 68
2020-01-10 00:00:00 9.7 11 Norte 28 Noroeste 0 -- -- 68
2020-01-09 23:00:00 9.4 12 Noroeste 18 Noroeste 0 -- -- 74
2020-01-09 22:00:00 8 5 Noroeste 10 Norte 0 -- -- 86
2020-01-09 21:00:00 9 3 Noroeste 8 Nordeste 0 -- -- 86
2020-01-09 20:00:00 9.1 3 Oeste 8 Oeste 0 -- -- 86
2020-01-09 19:00:00 9.8 3 Oeste 6 Nordeste 0 -- -- 82
2020-01-09 18:00:00 12.5 3 Oeste 15 Oeste 0 -- -- 72
2020-01-09 17:00:00 13.7 9 Oeste 16 Oeste 0 -- -- 66
2020-01-09 16:00:00 14.3 6 Sudoeste 11 Oeste 0 -- -- 61
2020-01-09 15:00:00 13.7 8 Sudoeste 14 Sudoeste 0 -- -- 64
2020-01-09 14:00:00 12.6 7 Oeste 14 Sudeste 0 -- -- 66
2020-01-09 13:00:00 11.3 10 Sudeste 14 Sudeste 0 -- -- 70
2020-01-09 12:00:00 9.6 2 Sur 7 Sur 0 -- -- 78
2020-01-09 11:00:00 6.7 3 Sudeste 6 Sudeste 0 -- -- 87
2020-01-09 10:00:00 2.8 2 Noroeste 6 Este 0 -- -- 98
2020-01-09 09:00:00 1.4 0 Calma 8 Noroeste 0 -- -- 95
2020-01-09 08:00:00 2.2 3 Oeste 8 Oeste 0 -- -- 96
2020-01-09 07:00:00 1.7 4 Oeste 6 Oeste 0 -- -- 97
2020-01-09 06:00:00 1.2 2 Noroeste 4 Noroeste 0 -- -- 96
2020-01-09 05:00:00 1.8 0 Calma 5 Noroeste 0 -- -- 95
2020-01-09 04:00:00 2.6 3 Sur 9 Norte 0 -- -- 96
2020-01-09 03:00:00 1.6 2 Noroeste 5 Oeste 0 -- -- 96
2020-01-09 02:00:00 1.8 0 Calma 5 Noroeste 0 -- -- 94
2020-01-09 01:00:00 3.4 4 Noroeste 6 Noroeste 0 -- -- 95
2020-01-09 00:00:00 2.9 4 Norte 6 Oeste 0 -- -- 96
2020-01-08 23:00:00 3.4 3 Noroeste 5 Oeste 0 -- -- 94
2020-01-08 22:00:00 4.4 4 Noroeste 5 Noroeste 0 -- -- 93
2020-01-08 21:00:00 5.1 3 Noroeste 6 Oeste 0 -- -- 93
2020-01-08 20:00:00 5.5 3 Noroeste 5 Oeste 0 -- -- 91
2020-01-08 19:00:00 7.2 2 Noroeste 5 Sudoeste 0 -- -- 87
2020-01-08 18:00:00 11.3 3 Sur 5 Sur 0 -- -- 72
2020-01-08 17:00:00 13.1 4 Sudeste 9 Sur 0 -- -- 66
2020-01-08 16:00:00 13 5 Sudeste 11 Sur 0 -- -- 64
2020-01-08 15:00:00 12.4 5 Sur 10 Sur 0 -- -- 63
2020-01-08 14:00:00 11.4 5 Sur 9 Sudeste 0 -- -- 67
2020-01-08 13:00:00 9.5 4 Sur 6 Sudeste 0 -- -- 72
2020-01-08 12:00:00 6.8 3 Sur 5 Sur 0 -- -- 80
2020-01-08 11:00:00 3.9 0 Calma 5 Este 0 -- -- 89
2020-01-08 10:00:00 1 0 Calma 7 Norte 0 -- -- 98
2020-01-08 09:00:00 -0.3 4 Nordeste 8 Norte 0 -- -- 97
2020-01-08 08:00:00 -0.6 0 Calma 5 Oeste 0 -- -- 97
2020-01-08 07:00:00 -0.3 3 Noroeste 4 Noroeste 0 -- -- 97
2020-01-08 06:00:00 -0.7 2 Noroeste 4 Norte 0 -- -- 96
2020-01-08 05:00:00 0.5 0 Calma 5 Oeste 0 -- -- 96
2020-01-08 04:00:00 1.1 0 Calma 7 Oeste 0 -- -- 96
2020-01-08 03:00:00 1 3 Noroeste 7 Noroeste 0 -- -- 95
2020-01-08 02:00:00 1.5 2 Noroeste 7 Oeste 0 -- -- 95
2020-01-08 01:00:00 1.8 4 Noroeste 6 Oeste 0 -- -- 94
2020-01-08 00:00:00 2.6 4 Noroeste 6 Oeste 0 -- -- 93
2020-01-07 23:00:00 2.5 3 Noroeste 5 Noroeste 0 -- -- 92
2020-01-07 22:00:00 4 3 Oeste 6 Oeste 0 -- -- 90
2020-01-07 21:00:00 4.8 4 Noroeste 6 Oeste 0 -- -- 88
2020-01-07 20:00:00 6 4 Oeste 5 Noroeste 0 -- -- 85
2020-01-07 19:00:00 8.6 4 Noroeste 6 Oeste 0 -- -- 79
2020-01-07 18:00:00 12.5 3 Sudoeste 8 Sudoeste 0 -- -- 67
2020-01-07 17:00:00 14.8 4 Sudoeste 8 Oeste 0 -- -- 58
2020-01-07 16:00:00 14.6 4 Sudoeste 7 Sudoeste 0 -- -- 55
2020-01-07 15:00:00 13.4 3 Sur 8 Sur 0 -- -- 58
2020-01-07 14:00:00 11.7 3 Sur 11 Sudeste 0 -- -- 65
2020-01-07 13:00:00 10 6 Sur 9 Sur 0 -- -- 69
2020-01-07 12:00:00 8.2 5 Sur 9 Sudeste 0 -- -- 77
2020-01-07 11:00:00 6.4 2 Sudeste 4 Este 0 -- -- 83
2020-01-07 10:00:00 2.5 0 Calma 4 Este 0 -- -- 98
2020-01-07 09:00:00 0.1 2 Noroeste 5 Oeste 0 -- -- 97
2020-01-07 08:00:00 -0.3 3 Noroeste 5 Norte 0 -- -- 97
2020-01-07 07:00:00 0 2 Noroeste 5 Oeste 0 -- -- 97
2020-01-07 06:00:00 -0.1 2 Norte 5 Noroeste 0 -- -- 96
2020-01-07 05:00:00 0.8 4 Noroeste 6 Noroeste 0 -- -- 96
2020-01-07 04:00:00 1.9 0 Calma 6 Norte 0 -- -- 96
2020-01-07 03:00:00 0.9 3 Norte 5 Norte 0 -- -- 96
2020-01-07 02:00:00 1.9 4 Noroeste 6 Oeste 0 -- -- 94
2020-01-07 01:00:00 2.1 4 Noroeste 6 Oeste 0 -- -- 95
2020-01-07 00:00:00 2.2 3 Norte 5 Noroeste 0 -- -- 94
2020-01-06 23:00:00 3.2 3 Noroeste 5 Oeste 0 -- -- 93
2020-01-06 22:00:00 4.3 2 Oeste 7 Oeste 0 -- -- 90
2020-01-06 21:00:00 4.6 5 Noroeste 7 Oeste 0 -- -- 90
2020-01-06 20:00:00 5.5 4 Noroeste 6 Noroeste 0 -- -- 89
2020-01-06 19:00:00 7.4 2 Noroeste 4 Oeste 0 -- -- 81
2020-01-06 18:00:00 11.2 2 Sudoeste 5 Sudoeste 0 -- -- 67
2020-01-06 17:00:00 12.9 4 Sur 8 Sur 0 -- -- 57
2020-01-06 16:00:00 13.1 4 Sudoeste 10 Sudoeste 0 -- -- 55
2020-01-06 15:00:00 13.2 4 Sur 9 Sur 0 -- -- 58
2020-01-06 14:00:00 11.3 2 Sudeste 10 Sudeste 0 -- -- 61
2020-01-06 13:00:00 9.9 5 Sur 10 Sudeste 0 -- -- 69
2020-01-06 12:00:00 7 3 Sur 9 Sudeste 0 -- -- 79
2020-01-06 11:00:00 5.8 2 Este 4 Sudeste 0 -- -- 87
2020-01-06 10:00:00 1.4 0 Calma 6 Oeste 0 -- -- 97